sensor_id;sensor_type;location;lat;lon;timestamp;P1;durP1;ratioP1;P2;durP2;ratioP2
37955;SDS011;23776;51.592;7.180;2023-07-13T00:01:12;6.85;;;2.55;;
37955;SDS011;23776;51.592;7.180;2023-07-13T00:03:38;12.50;;;2.45;;
37955;SDS011;23776;51.592;7.180;2023-07-13T00:06:06;10.38;;;2.55;;
37955;SDS011;23776;51.592;7.180;2023-07-13T00:08:32;6.70;;;2.25;;
37955;SDS011;23776;51.592;7.180;2023-07-13T00:10:59;4.13;;;2.08;;
37955;SDS011;23776;51.592;7.180;2023-07-13T00:13:25;5.32;;;2.20;;
37955;SDS011;23776;51.592;7.180;2023-07-13T00:15:51;6.53;;;2.65;;
37955;SDS011;23776;51.592;7.180;2023-07-13T00:18:18;9.00;;;2.88;;
37955;SDS011;23776;51.592;7.180;2023-07-13T00:20:44;8.80;;;2.40;;
37955;SDS011;23776;51.592;7.180;2023-07-13T00:23:10;6.38;;;2.22;;
37955;SDS011;23776;51.592;7.180;2023-07-13T00:25:36;7.80;;;2.47;;
37955;SDS011;23776;51.592;7.180;2023-07-13T00:28:02;4.75;;;1.83;;
37955;SDS011;23776;51.592;7.180;2023-07-13T00:30:28;8.88;;;2.47;;
37955;SDS011;23776;51.592;7.180;2023-07-13T00:32:53;6.00;;;2.33;;
37955;SDS011;23776;51.592;7.180;2023-07-13T00:35:19;8.20;;;2.53;;
37955;SDS011;23776;51.592;7.180;2023-07-13T00:37:45;11.77;;;2.50;;
37955;SDS011;23776;51.592;7.180;2023-07-13T00:40:11;5.20;;;1.98;;
37955;SDS011;23776;51.592;7.180;2023-07-13T00:42:38;8.68;;;2.38;;
37955;SDS011;23776;51.592;7.180;2023-07-13T00:45:05;10.65;;;2.20;;
37955;SDS011;23776;51.592;7.180;2023-07-13T00:47:37;6.10;;;2.50;;
37955;SDS011;23776;51.592;7.180;2023-07-13T00:50:06;7.35;;;2.03;;
37955;SDS011;23776;51.592;7.180;2023-07-13T00:52:38;7.15;;;2.22;;
37955;SDS011;23776;51.592;7.180;2023-07-13T00:55:08;7.70;;;2.10;;
37955;SDS011;23776;51.592;7.180;2023-07-13T00:57:36;6.93;;;2.15;;
37955;SDS011;23776;51.592;7.180;2023-07-13T01:00:03;5.72;;;2.63;;
37955;SDS011;23776;51.592;7.180;2023-07-13T01:02:31;8.23;;;2.55;;
37955;SDS011;23776;51.592;7.180;2023-07-13T01:04:58;13.20;;;3.00;;
37955;SDS011;23776;51.592;7.180;2023-07-13T01:07:23;8.07;;;2.80;;
37955;SDS011;23776;51.592;7.180;2023-07-13T01:09:49;8.38;;;2.08;;
37955;SDS011;23776;51.592;7.180;2023-07-13T01:12:15;9.68;;;2.90;;
37955;SDS011;23776;51.592;7.180;2023-07-13T01:14:40;9.95;;;2.35;;
37955;SDS011;23776;51.592;7.180;2023-07-13T01:17:08;7.90;;;2.05;;
37955;SDS011;23776;51.592;7.180;2023-07-13T01:19:36;8.68;;;2.00;;
37955;SDS011;23776;51.592;7.180;2023-07-13T01:24:40;6.13;;;1.92;;
37955;SDS011;23776;51.592;7.180;2023-07-13T01:27:08;11.73;;;2.17;;
37955;SDS011;23776;51.592;7.180;2023-07-13T01:29:37;10.63;;;1.98;;
37955;SDS011;23776;51.592;7.180;2023-07-13T01:32:07;9.52;;;2.15;;
37955;SDS011;23776;51.592;7.180;2023-07-13T01:34:37;7.97;;;1.65;;
37955;SDS011;23776;51.592;7.180;2023-07-13T01:37:07;5.13;;;2.03;;
37955;SDS011;23776;51.592;7.180;2023-07-13T01:39:36;7.53;;;2.03;;
37955;SDS011;23776;51.592;7.180;2023-07-13T01:42:03;5.80;;;2.22;;
37955;SDS011;23776;51.592;7.180;2023-07-13T01:44:29;5.28;;;2.17;;
37955;SDS011;23776;51.592;7.180;2023-07-13T01:46:54;5.22;;;2.35;;
37955;SDS011;23776;51.592;7.180;2023-07-13T01:49:20;7.82;;;2.17;;
37955;SDS011;23776;51.592;7.180;2023-07-13T01:51:46;2.92;;;1.67;;
37955;SDS011;23776;51.592;7.180;2023-07-13T01:54:11;10.60;;;2.05;;
37955;SDS011;23776;51.592;7.180;2023-07-13T01:56:37;9.32;;;2.47;;
37955;SDS011;23776;51.592;7.180;2023-07-13T01:59:03;7.53;;;2.13;;
37955;SDS011;23776;51.592;7.180;2023-07-13T02:01:29;8.77;;;2.03;;
37955;SDS011;23776;51.592;7.180;2023-07-13T02:03:54;6.15;;;2.47;;
37955;SDS011;23776;51.592;7.180;2023-07-13T02:09:42;9.90;;;1.73;;
37955;SDS011;23776;51.592;7.180;2023-07-13T02:12:08;4.70;;;2.00;;
37955;SDS011;23776;51.592;7.180;2023-07-13T02:14:34;5.45;;;2.03;;
37955;SDS011;23776;51.592;7.180;2023-07-13T02:16:59;8.82;;;2.55;;
37955;SDS011;23776;51.592;7.180;2023-07-13T02:19:25;5.70;;;1.92;;
37955;SDS011;23776;51.592;7.180;2023-07-13T02:21:50;6.30;;;2.20;;
37955;SDS011;23776;51.592;7.180;2023-07-13T02:24:16;8.07;;;2.33;;
37955;SDS011;23776;51.592;7.180;2023-07-13T02:26:44;8.52;;;3.03;;
37955;SDS011;23776;51.592;7.180;2023-07-13T02:29:10;4.95;;;1.75;;
37955;SDS011;23776;51.592;7.180;2023-07-13T02:31:36;8.50;;;2.45;;
37955;SDS011;23776;51.592;7.180;2023-07-13T02:34:02;5.00;;;1.67;;
37955;SDS011;23776;51.592;7.180;2023-07-13T02:36:28;12.70;;;1.83;;
37955;SDS011;23776;51.592;7.180;2023-07-13T02:38:53;10.85;;;2.30;;
37955;SDS011;23776;51.592;7.180;2023-07-13T02:41:19;11.30;;;2.67;;
37955;SDS011;23776;51.592;7.180;2023-07-13T02:43:44;5.93;;;2.20;;
37955;SDS011;23776;51.592;7.180;2023-07-13T02:46:10;7.15;;;1.88;;
37955;SDS011;23776;51.592;7.180;2023-07-13T02:48:36;13.07;;;2.33;;
37955;SDS011;23776;51.592;7.180;2023-07-13T02:51:03;8.13;;;2.13;;
37955;SDS011;23776;51.592;7.180;2023-07-13T02:53:29;14.80;;;2.30;;
37955;SDS011;23776;51.592;7.180;2023-07-13T02:55:55;7.53;;;2.28;;
37955;SDS011;23776;51.592;7.180;2023-07-13T02:58:21;7.68;;;3.17;;
37955;SDS011;23776;51.592;7.180;2023-07-13T03:00:47;5.38;;;1.90;;
37955;SDS011;23776;51.592;7.180;2023-07-13T03:03:13;5.78;;;1.73;;
37955;SDS011;23776;51.592;7.180;2023-07-13T03:05:40;6.97;;;2.20;;
37955;SDS011;23776;51.592;7.180;2023-07-13T03:08:07;6.78;;;2.00;;
37955;SDS011;23776;51.592;7.180;2023-07-13T03:10:33;8.80;;;2.13;;
37955;SDS011;23776;51.592;7.180;2023-07-13T03:12:59;4.70;;;2.20;;
37955;SDS011;23776;51.592;7.180;2023-07-13T03:15:25;11.07;;;2.30;;
37955;SDS011;23776;51.592;7.180;2023-07-13T03:17:51;13.15;;;2.05;;
37955;SDS011;23776;51.592;7.180;2023-07-13T03:20:17;10.70;;;2.50;;
37955;SDS011;23776;51.592;7.180;2023-07-13T03:22:43;7.13;;;1.80;;
37955;SDS011;23776;51.592;7.180;2023-07-13T03:25:09;5.78;;;1.95;;
37955;SDS011;23776;51.592;7.180;2023-07-13T03:27:35;3.83;;;1.52;;
37955;SDS011;23776;51.592;7.180;2023-07-13T03:30:02;8.68;;;1.83;;
37955;SDS011;23776;51.592;7.180;2023-07-13T03:32:28;9.43;;;2.17;;
37955;SDS011;23776;51.592;7.180;2023-07-13T03:34:54;7.57;;;1.80;;
37955;SDS011;23776;51.592;7.180;2023-07-13T03:37:20;7.05;;;1.80;;
37955;SDS011;23776;51.592;7.180;2023-07-13T03:39:46;10.77;;;2.10;;
37955;SDS011;23776;51.592;7.180;2023-07-13T03:42:11;14.68;;;3.33;;
37955;SDS011;23776;51.592;7.180;2023-07-13T03:44:38;4.95;;;1.75;;
37955;SDS011;23776;51.592;7.180;2023-07-13T03:47:05;4.35;;;1.67;;
37955;SDS011;23776;51.592;7.180;2023-07-13T03:49:31;8.93;;;2.25;;
37955;SDS011;23776;51.592;7.180;2023-07-13T03:51:57;10.85;;;2.15;;
37955;SDS011;23776;51.592;7.180;2023-07-13T03:54:22;7.63;;;1.95;;
37955;SDS011;23776;51.592;7.180;2023-07-13T03:56:48;10.35;;;1.80;;
37955;SDS011;23776;51.592;7.180;2023-07-13T03:59:14;3.53;;;1.50;;
37955;SDS011;23776;51.592;7.180;2023-07-13T04:01:40;9.20;;;1.92;;
37955;SDS011;23776;51.592;7.180;2023-07-13T04:04:05;11.70;;;2.15;;
37955;SDS011;23776;51.592;7.180;2023-07-13T04:06:31;8.32;;;2.20;;
37955;SDS011;23776;51.592;7.180;2023-07-13T04:08:58;5.68;;;1.85;;
37955;SDS011;23776;51.592;7.180;2023-07-13T04:11:26;10.27;;;2.13;;
37955;SDS011;23776;51.592;7.180;2023-07-13T04:13:53;6.72;;;1.85;;
37955;SDS011;23776;51.592;7.180;2023-07-13T04:16:19;10.75;;;2.83;;
37955;SDS011;23776;51.592;7.180;2023-07-13T04:18:45;10.27;;;2.45;;
37955;SDS011;23776;51.592;7.180;2023-07-13T04:21:12;6.13;;;2.10;;
37955;SDS011;23776;51.592;7.180;2023-07-13T04:23:38;6.95;;;1.80;;
37955;SDS011;23776;51.592;7.180;2023-07-13T04:26:04;13.05;;;2.17;;
37955;SDS011;23776;51.592;7.180;2023-07-13T04:28:31;10.38;;;2.30;;
37955;SDS011;23776;51.592;7.180;2023-07-13T04:30:57;5.80;;;1.88;;
37955;SDS011;23776;51.592;7.180;2023-07-13T04:33:23;7.80;;;2.47;;
37955;SDS011;23776;51.592;7.180;2023-07-13T04:35:49;11.13;;;2.17;;
37955;SDS011;23776;51.592;7.180;2023-07-13T04:38:31;7.47;;;2.00;;
37955;SDS011;23776;51.592;7.180;2023-07-13T04:41:01;7.07;;;1.83;;
37955;SDS011;23776;51.592;7.180;2023-07-13T04:43:29;4.78;;;1.88;;
37955;SDS011;23776;51.592;7.180;2023-07-13T04:45:55;6.03;;;1.90;;
37955;SDS011;23776;51.592;7.180;2023-07-13T04:48:21;6.15;;;1.80;;
37955;SDS011;23776;51.592;7.180;2023-07-13T04:50:47;6.85;;;2.47;;
37955;SDS011;23776;51.592;7.180;2023-07-13T04:53:13;7.78;;;2.25;;
37955;SDS011;23776;51.592;7.180;2023-07-13T04:55:39;4.97;;;2.10;;
37955;SDS011;23776;51.592;7.180;2023-07-13T04:58:05;8.90;;;2.17;;
37955;SDS011;23776;51.592;7.180;2023-07-13T05:00:31;5.95;;;1.77;;
37955;SDS011;23776;51.592;7.180;2023-07-13T05:02:57;7.35;;;2.10;;
37955;SDS011;23776;51.592;7.180;2023-07-13T05:05:24;17.38;;;2.50;;
37955;SDS011;23776;51.592;7.180;2023-07-13T05:07:51;11.68;;;2.15;;
37955;SDS011;23776;51.592;7.180;2023-07-13T05:10:17;10.43;;;2.35;;
37955;SDS011;23776;51.592;7.180;2023-07-13T05:12:42;10.65;;;2.22;;
37955;SDS011;23776;51.592;7.180;2023-07-13T05:15:08;8.00;;;2.50;;
37955;SDS011;23776;51.592;7.180;2023-07-13T05:17:34;7.00;;;2.53;;
37955;SDS011;23776;51.592;7.180;2023-07-13T05:20:00;8.60;;;2.65;;
37955;SDS011;23776;51.592;7.180;2023-07-13T05:22:25;6.95;;;2.10;;
37955;SDS011;23776;51.592;7.180;2023-07-13T05:24:51;7.93;;;1.95;;
37955;SDS011;23776;51.592;7.180;2023-07-13T05:27:16;8.40;;;2.30;;
37955;SDS011;23776;51.592;7.180;2023-07-13T05:29:42;8.57;;;2.97;;
37955;SDS011;23776;51.592;7.180;2023-07-13T05:32:07;17.73;;;2.25;;
37955;SDS011;23776;51.592;7.180;2023-07-13T05:34:33;11.50;;;2.33;;
37955;SDS011;23776;51.592;7.180;2023-07-13T05:36:59;9.07;;;2.25;;
37955;SDS011;23776;51.592;7.180;2023-07-13T05:39:24;7.38;;;2.50;;
37955;SDS011;23776;51.592;7.180;2023-07-13T05:41:51;13.25;;;3.08;;
37955;SDS011;23776;51.592;7.180;2023-07-13T05:44:16;13.70;;;2.30;;
37955;SDS011;23776;51.592;7.180;2023-07-13T05:46:43;10.98;;;2.83;;
37955;SDS011;23776;51.592;7.180;2023-07-13T05:49:09;11.73;;;2.60;;
37955;SDS011;23776;51.592;7.180;2023-07-13T05:51:34;14.90;;;2.97;;
37955;SDS011;23776;51.592;7.180;2023-07-13T05:54:00;9.68;;;2.17;;
37955;SDS011;23776;51.592;7.180;2023-07-13T05:56:25;13.30;;;3.50;;
37955;SDS011;23776;51.592;7.180;2023-07-13T05:58:51;11.40;;;2.80;;
37955;SDS011;23776;51.592;7.180;2023-07-13T06:01:17;14.43;;;2.72;;
37955;SDS011;23776;51.592;7.180;2023-07-13T06:03:45;8.65;;;2.63;;
37955;SDS011;23776;51.592;7.180;2023-07-13T06:06:11;7.80;;;2.35;;
37955;SDS011;23776;51.592;7.180;2023-07-13T06:08:36;11.70;;;2.90;;
37955;SDS011;23776;51.592;7.180;2023-07-13T06:11:07;15.88;;;3.53;;
37955;SDS011;23776;51.592;7.180;2023-07-13T06:13:36;12.90;;;2.78;;
37955;SDS011;23776;51.592;7.180;2023-07-13T06:16:02;16.17;;;3.47;;
37955;SDS011;23776;51.592;7.180;2023-07-13T06:18:32;9.82;;;2.53;;
37955;SDS011;23776;51.592;7.180;2023-07-13T06:20:58;11.90;;;3.10;;
37955;SDS011;23776;51.592;7.180;2023-07-13T06:23:24;14.10;;;3.70;;
37955;SDS011;23776;51.592;7.180;2023-07-13T06:25:50;11.57;;;3.55;;
37955;SDS011;23776;51.592;7.180;2023-07-13T06:28:16;8.68;;;3.25;;
37955;SDS011;23776;51.592;7.180;2023-07-13T06:30:41;12.00;;;3.42;;
37955;SDS011;23776;51.592;7.180;2023-07-13T06:33:07;16.85;;;3.83;;
37955;SDS011;23776;51.592;7.180;2023-07-13T06:35:33;11.05;;;3.17;;
37955;SDS011;23776;51.592;7.180;2023-07-13T06:37:59;14.63;;;3.55;;
37955;SDS011;23776;51.592;7.180;2023-07-13T06:40:24;10.68;;;3.80;;
37955;SDS011;23776;51.592;7.180;2023-07-13T06:42:50;14.52;;;3.10;;
37955;SDS011;23776;51.592;7.180;2023-07-13T06:45:16;18.20;;;3.80;;
37955;SDS011;23776;51.592;7.180;2023-07-13T06:47:41;11.05;;;3.17;;
37955;SDS011;23776;51.592;7.180;2023-07-13T06:50:07;10.77;;;3.45;;
37955;SDS011;23776;51.592;7.180;2023-07-13T06:52:33;16.17;;;3.60;;
37955;SDS011;23776;51.592;7.180;2023-07-13T06:54:58;12.90;;;3.95;;
37955;SDS011;23776;51.592;7.180;2023-07-13T06:57:24;17.40;;;4.18;;
37955;SDS011;23776;51.592;7.180;2023-07-13T06:59:50;14.80;;;4.38;;
37955;SDS011;23776;51.592;7.180;2023-07-13T07:02:15;17.88;;;4.28;;
37955;SDS011;23776;51.592;7.180;2023-07-13T07:04:41;13.63;;;4.43;;
37955;SDS011;23776;51.592;7.180;2023-07-13T07:07:06;12.85;;;3.85;;
37955;SDS011;23776;51.592;7.180;2023-07-13T07:09:32;11.73;;;3.83;;
37955;SDS011;23776;51.592;7.180;2023-07-13T07:11:58;13.35;;;4.82;;
37955;SDS011;23776;51.592;7.180;2023-07-13T07:14:23;17.52;;;6.43;;
37955;SDS011;23776;51.592;7.180;2023-07-13T07:16:49;17.52;;;6.63;;
37955;SDS011;23776;51.592;7.180;2023-07-13T07:19:15;19.05;;;5.25;;
37955;SDS011;23776;51.592;7.180;2023-07-13T07:21:41;16.17;;;5.05;;
37955;SDS011;23776;51.592;7.180;2023-07-13T07:24:07;12.48;;;3.67;;
37955;SDS011;23776;51.592;7.180;2023-07-13T07:26:33;19.30;;;5.20;;
37955;SDS011;23776;51.592;7.180;2023-07-13T07:28:59;20.83;;;4.53;;
37955;SDS011;23776;51.592;7.180;2023-07-13T07:31:24;8.48;;;3.90;;
37955;SDS011;23776;51.592;7.180;2023-07-13T07:33:50;13.68;;;4.68;;
37955;SDS011;23776;51.592;7.180;2023-07-13T07:36:16;17.65;;;4.90;;
37955;SDS011;23776;51.592;7.180;2023-07-13T07:38:42;13.15;;;4.85;;
37955;SDS011;23776;51.592;7.180;2023-07-13T07:41:08;18.55;;;4.43;;
37955;SDS011;23776;51.592;7.180;2023-07-13T07:43:34;15.55;;;4.72;;
37955;SDS011;23776;51.592;7.180;2023-07-13T07:45:59;14.95;;;4.03;;
37955;SDS011;23776;51.592;7.180;2023-07-13T07:48:25;18.27;;;4.60;;
37955;SDS011;23776;51.592;7.180;2023-07-13T07:50:51;15.65;;;4.72;;
37955;SDS011;23776;51.592;7.180;2023-07-13T07:53:16;13.82;;;4.45;;
37955;SDS011;23776;51.592;7.180;2023-07-13T07:55:43;15.60;;;4.32;;
37955;SDS011;23776;51.592;7.180;2023-07-13T07:58:10;15.45;;;4.53;;
37955;SDS011;23776;51.592;7.180;2023-07-13T08:00:39;9.20;;;3.17;;
37955;SDS011;23776;51.592;7.180;2023-07-13T08:03:05;13.88;;;4.10;;
37955;SDS011;23776;51.592;7.180;2023-07-13T08:05:30;11.05;;;3.47;;
37955;SDS011;23776;51.592;7.180;2023-07-13T08:07:56;15.23;;;4.38;;
37955;SDS011;23776;51.592;7.180;2023-07-13T08:10:22;13.90;;;3.53;;
37955;SDS011;23776;51.592;7.180;2023-07-13T08:12:48;13.05;;;4.55;;
37955;SDS011;23776;51.592;7.180;2023-07-13T08:15:14;18.15;;;4.30;;
37955;SDS011;23776;51.592;7.180;2023-07-13T08:17:42;14.73;;;4.00;;
37955;SDS011;23776;51.592;7.180;2023-07-13T08:20:07;10.88;;;3.75;;
37955;SDS011;23776;51.592;7.180;2023-07-13T08:22:36;17.15;;;4.30;;
37955;SDS011;23776;51.592;7.180;2023-07-13T08:25:02;11.20;;;5.00;;
37955;SDS011;23776;51.592;7.180;2023-07-13T08:27:28;14.95;;;4.43;;
37955;SDS011;23776;51.592;7.180;2023-07-13T08:29:54;13.07;;;4.15;;
37955;SDS011;23776;51.592;7.180;2023-07-13T08:32:21;9.48;;;4.65;;
37955;SDS011;23776;51.592;7.180;2023-07-13T08:34:48;14.60;;;5.22;;
37955;SDS011;23776;51.592;7.180;2023-07-13T08:37:14;14.57;;;5.07;;
37955;SDS011;23776;51.592;7.180;2023-07-13T08:39:41;9.88;;;3.88;;
37955;SDS011;23776;51.592;7.180;2023-07-13T08:44:43;11.48;;;4.03;;
37955;SDS011;23776;51.592;7.180;2023-07-13T08:47:14;12.25;;;4.88;;
37955;SDS011;23776;51.592;7.180;2023-07-13T08:49:41;13.15;;;5.00;;
37955;SDS011;23776;51.592;7.180;2023-07-13T08:55:14;14.35;;;5.45;;
37955;SDS011;23776;51.592;7.180;2023-07-13T08:57:51;11.63;;;5.25;;
37955;SDS011;23776;51.592;7.180;2023-07-13T09:00:24;12.30;;;5.40;;
37955;SDS011;23776;51.592;7.180;2023-07-13T09:03:03;8.65;;;5.43;;
37955;SDS011;23776;51.592;7.180;2023-07-13T09:05:38;13.70;;;5.57;;
37955;SDS011;23776;51.592;7.180;2023-07-13T09:08:21;19.55;;;6.20;;
37955;SDS011;23776;51.592;7.180;2023-07-13T09:17:10;16.10;;;5.35;;
37955;SDS011;23776;51.592;7.180;2023-07-13T09:19:42;12.00;;;3.90;;
37955;SDS011;23776;51.592;7.180;2023-07-13T09:22:13;16.77;;;4.28;;
37955;SDS011;23776;51.592;7.180;2023-07-13T09:24:45;11.00;;;4.07;;
37955;SDS011;23776;51.592;7.180;2023-07-13T09:27:14;13.15;;;4.15;;
37955;SDS011;23776;51.592;7.180;2023-07-13T09:29:47;13.13;;;3.72;;
37955;SDS011;23776;51.592;7.180;2023-07-13T09:32:17;17.00;;;4.18;;
37955;SDS011;23776;51.592;7.180;2023-07-13T09:34:53;10.15;;;4.25;;
37955;SDS011;23776;51.592;7.180;2023-07-13T09:37:20;15.80;;;4.80;;
37955;SDS011;23776;51.592;7.180;2023-07-13T09:39:48;14.68;;;5.60;;
37955;SDS011;23776;51.592;7.180;2023-07-13T09:42:18;12.98;;;5.28;;
37955;SDS011;23776;51.592;7.180;2023-07-13T09:44:53;13.52;;;5.20;;
37955;SDS011;23776;51.592;7.180;2023-07-13T09:47:22;7.10;;;4.13;;
37955;SDS011;23776;51.592;7.180;2023-07-13T09:49:58;9.57;;;4.80;;
37955;SDS011;23776;51.592;7.180;2023-07-13T09:52:25;12.05;;;4.50;;
37955;SDS011;23776;51.592;7.180;2023-07-13T09:54:52;15.48;;;4.07;;
37955;SDS011;23776;51.592;7.180;2023-07-13T09:57:24;14.73;;;4.22;;
37955;SDS011;23776;51.592;7.180;2023-07-13T09:59:51;13.63;;;3.80;;
37955;SDS011;23776;51.592;7.180;2023-07-13T10:02:35;12.90;;;3.58;;
37955;SDS011;23776;51.592;7.180;2023-07-13T10:07:39;13.90;;;3.83;;
37955;SDS011;23776;51.592;7.180;2023-07-13T10:10:15;14.57;;;4.13;;
37955;SDS011;23776;51.592;7.180;2023-07-13T10:12:43;9.75;;;3.03;;
37955;SDS011;23776;51.592;7.180;2023-07-13T10:15:13;8.07;;;2.67;;
37955;SDS011;23776;51.592;7.180;2023-07-13T10:17:48;10.48;;;3.15;;
37955;SDS011;23776;51.592;7.180;2023-07-13T10:20:16;9.00;;;3.53;;
37955;SDS011;23776;51.592;7.180;2023-07-13T10:25:24;12.80;;;4.10;;
37955;SDS011;23776;51.592;7.180;2023-07-13T10:27:54;9.88;;;3.22;;
37955;SDS011;23776;51.592;7.180;2023-07-13T10:30:27;9.63;;;3.47;;
37955;SDS011;23776;51.592;7.180;2023-07-13T10:33:00;12.75;;;3.50;;
37955;SDS011;23776;51.592;7.180;2023-07-13T10:35:28;11.50;;;2.67;;
37955;SDS011;23776;51.592;7.180;2023-07-13T10:41:03;11.93;;;3.10;;
37955;SDS011;23776;51.592;7.180;2023-07-13T10:43:33;8.73;;;2.95;;
37955;SDS011;23776;51.592;7.180;2023-07-13T10:46:03;9.32;;;3.40;;
37955;SDS011;23776;51.592;7.180;2023-07-13T10:48:31;9.90;;;3.28;;
37955;SDS011;23776;51.592;7.180;2023-07-13T10:50:59;12.25;;;3.40;;
37955;SDS011;23776;51.592;7.180;2023-07-13T10:53:36;11.05;;;3.63;;
37955;SDS011;23776;51.592;7.180;2023-07-13T10:59:14;7.35;;;2.67;;
37955;SDS011;23776;51.592;7.180;2023-07-13T11:04:28;7.35;;;2.90;;
37955;SDS011;23776;51.592;7.180;2023-07-13T11:07:11;9.07;;;3.35;;
37955;SDS011;23776;51.592;7.180;2023-07-13T11:09:49;8.63;;;2.85;;
37955;SDS011;23776;51.592;7.180;2023-07-13T11:17:29;10.40;;;2.70;;
37955;SDS011;23776;51.592;7.180;2023-07-13T11:20:09;8.13;;;2.30;;
37955;SDS011;23776;51.592;7.180;2023-07-13T11:22:43;9.90;;;2.88;;
37955;SDS011;23776;51.592;7.180;2023-07-13T11:27:52;9.40;;;3.00;;
37955;SDS011;23776;51.592;7.180;2023-07-13T11:36:05;10.38;;;2.60;;
37955;SDS011;23776;51.592;7.180;2023-07-13T11:38:41;10.27;;;2.95;;
37955;SDS011;23776;51.592;7.180;2023-07-13T11:41:19;7.22;;;2.60;;
37955;SDS011;23776;51.592;7.180;2023-07-13T11:43:53;12.32;;;2.50;;
37955;SDS011;23776;51.592;7.180;2023-07-13T11:46:21;11.52;;;2.75;;
37955;SDS011;23776;51.592;7.180;2023-07-13T11:48:49;7.18;;;2.33;;
37955;SDS011;23776;51.592;7.180;2023-07-13T11:53:50;7.43;;;2.15;;
37955;SDS011;23776;51.592;7.180;2023-07-13T11:56:16;11.48;;;2.58;;
37955;SDS011;23776;51.592;7.180;2023-07-13T11:58:42;11.05;;;2.50;;
37955;SDS011;23776;51.592;7.180;2023-07-13T12:01:19;3.22;;;1.98;;
37955;SDS011;23776;51.592;7.180;2023-07-13T12:03:50;10.00;;;2.25;;
37955;SDS011;23776;51.592;7.180;2023-07-13T12:06:26;5.88;;;2.20;;
37955;SDS011;23776;51.592;7.180;2023-07-13T12:08:55;8.38;;;2.20;;
37955;SDS011;23776;51.592;7.180;2023-07-13T12:11:23;8.82;;;2.40;;
37955;SDS011;23776;51.592;7.180;2023-07-13T12:13:48;7.82;;;2.22;;
37955;SDS011;23776;51.592;7.180;2023-07-13T12:16:16;5.45;;;1.90;;
37955;SDS011;23776;51.592;7.180;2023-07-13T12:18:49;9.65;;;2.30;;
37955;SDS011;23776;51.592;7.180;2023-07-13T12:21:18;9.98;;;2.00;;
37955;SDS011;23776;51.592;7.180;2023-07-13T12:23:47;5.18;;;2.08;;
37955;SDS011;23776;51.592;7.180;2023-07-13T12:26:14;13.02;;;2.35;;
37955;SDS011;23776;51.592;7.180;2023-07-13T12:28:49;7.90;;;2.05;;
37955;SDS011;23776;51.592;7.180;2023-07-13T12:31:40;4.65;;;2.05;;
37955;SDS011;23776;51.592;7.180;2023-07-13T12:34:12;8.57;;;2.28;;
37955;SDS011;23776;51.592;7.180;2023-07-13T12:36:49;6.60;;;2.10;;
37955;SDS011;23776;51.592;7.180;2023-07-13T12:39:16;8.32;;;2.22;;
37955;SDS011;23776;51.592;7.180;2023-07-13T12:41:49;3.33;;;1.60;;
37955;SDS011;23776;51.592;7.180;2023-07-13T12:44:29;6.70;;;1.98;;
37955;SDS011;23776;51.592;7.180;2023-07-13T12:47:05;7.75;;;1.90;;
37955;SDS011;23776;51.592;7.180;2023-07-13T12:49:39;6.35;;;1.95;;
37955;SDS011;23776;51.592;7.180;2023-07-13T12:52:10;5.72;;;1.63;;
37955;SDS011;23776;51.592;7.180;2023-07-13T12:54:39;6.53;;;1.90;;
37955;SDS011;23776;51.592;7.180;2023-07-13T12:57:05;5.80;;;2.40;;
37955;SDS011;23776;51.592;7.180;2023-07-13T12:59:34;8.65;;;2.17;;
37955;SDS011;23776;51.592;7.180;2023-07-13T13:02:01;11.52;;;2.13;;
37955;SDS011;23776;51.592;7.180;2023-07-13T13:04:27;7.82;;;1.80;;
37955;SDS011;23776;51.592;7.180;2023-07-13T13:07:03;7.13;;;1.95;;
37955;SDS011;23776;51.592;7.180;2023-07-13T13:09:34;7.20;;;1.98;;
37955;SDS011;23776;51.592;7.180;2023-07-13T13:11:59;6.70;;;2.05;;
37955;SDS011;23776;51.592;7.180;2023-07-13T13:14:25;7.40;;;2.80;;
37955;SDS011;23776;51.592;7.180;2023-07-13T13:16:51;6.50;;;3.13;;
37955;SDS011;23776;51.592;7.180;2023-07-13T13:19:19;8.07;;;2.70;;
37955;SDS011;23776;51.592;7.180;2023-07-13T13:21:46;10.30;;;2.80;;
37955;SDS011;23776;51.592;7.180;2023-07-13T13:24:16;7.50;;;2.17;;
37955;SDS011;23776;51.592;7.180;2023-07-13T13:26:45;9.65;;;3.97;;
37955;SDS011;23776;51.592;7.180;2023-07-13T13:29:12;8.63;;;3.45;;
37955;SDS011;23776;51.592;7.180;2023-07-13T13:31:40;10.80;;;3.90;;
37955;SDS011;23776;51.592;7.180;2023-07-13T13:34:07;11.02;;;4.10;;
37955;SDS011;23776;51.592;7.180;2023-07-13T13:36:38;8.95;;;4.28;;
37955;SDS011;23776;51.592;7.180;2023-07-13T13:41:44;7.90;;;4.20;;
37955;SDS011;23776;51.592;7.180;2023-07-13T13:44:10;11.07;;;4.57;;
37955;SDS011;23776;51.592;7.180;2023-07-13T13:46:35;12.27;;;4.97;;
37955;SDS011;23776;51.592;7.180;2023-07-13T13:49:02;11.00;;;4.68;;
37955;SDS011;23776;51.592;7.180;2023-07-13T13:51:27;10.30;;;4.07;;
37955;SDS011;23776;51.592;7.180;2023-07-13T13:53:54;7.45;;;4.95;;
37955;SDS011;23776;51.592;7.180;2023-07-13T13:56:20;11.93;;;4.95;;
37955;SDS011;23776;51.592;7.180;2023-07-13T13:58:45;10.68;;;5.80;;
37955;SDS011;23776;51.592;7.180;2023-07-13T14:01:12;11.40;;;5.25;;
37955;SDS011;23776;51.592;7.180;2023-07-13T14:03:42;8.10;;;5.00;;
37955;SDS011;23776;51.592;7.180;2023-07-13T14:06:11;8.82;;;5.03;;
37955;SDS011;23776;51.592;7.180;2023-07-13T14:08:37;8.07;;;4.80;;
37955;SDS011;23776;51.592;7.180;2023-07-13T14:11:03;8.70;;;4.90;;
37955;SDS011;23776;51.592;7.180;2023-07-13T14:13:33;8.18;;;4.90;;
37955;SDS011;23776;51.592;7.180;2023-07-13T14:16:02;9.65;;;5.22;;
37955;SDS011;23776;51.592;7.180;2023-07-13T14:18:30;8.07;;;4.93;;
37955;SDS011;23776;51.592;7.180;2023-07-13T14:20:55;11.10;;;5.03;;
37955;SDS011;23776;51.592;7.180;2023-07-13T14:23:21;9.05;;;5.07;;
37955;SDS011;23776;51.592;7.180;2023-07-13T14:25:47;7.45;;;4.70;;
37955;SDS011;23776;51.592;7.180;2023-07-13T14:30:44;7.57;;;4.78;;
37955;SDS011;23776;51.592;7.180;2023-07-13T14:33:11;7.35;;;5.25;;
37955;SDS011;23776;51.592;7.180;2023-07-13T14:35:36;9.55;;;5.47;;
37955;SDS011;23776;51.592;7.180;2023-07-13T14:38:03;9.75;;;5.53;;
37955;SDS011;23776;51.592;7.180;2023-07-13T14:40:30;12.68;;;5.28;;
37955;SDS011;23776;51.592;7.180;2023-07-13T14:42:56;8.82;;;5.82;;
37955;SDS011;23776;51.592;7.180;2023-07-13T14:45:23;10.50;;;4.90;;
37955;SDS011;23776;51.592;7.180;2023-07-13T14:47:50;7.53;;;4.82;;
37955;SDS011;23776;51.592;7.180;2023-07-13T14:50:16;11.77;;;5.70;;
37955;SDS011;23776;51.592;7.180;2023-07-13T14:52:44;12.02;;;5.20;;
37955;SDS011;23776;51.592;7.180;2023-07-13T14:55:12;6.32;;;4.40;;
37955;SDS011;23776;51.592;7.180;2023-07-13T14:57:39;6.38;;;4.10;;
37955;SDS011;23776;51.592;7.180;2023-07-13T15:00:12;6.80;;;3.90;;
37955;SDS011;23776;51.592;7.180;2023-07-13T15:02:42;9.93;;;4.47;;
37955;SDS011;23776;51.592;7.180;2023-07-13T15:05:14;6.50;;;3.70;;
37955;SDS011;23776;51.592;7.180;2023-07-13T15:07:47;6.82;;;3.08;;
37955;SDS011;23776;51.592;7.180;2023-07-13T15:12:51;12.48;;;5.57;;
37955;SDS011;23776;51.592;7.180;2023-07-13T15:15:18;6.55;;;4.03;;
37955;SDS011;23776;51.592;7.180;2023-07-13T15:17:44;8.52;;;3.67;;
37955;SDS011;23776;51.592;7.180;2023-07-13T15:22:52;6.78;;;2.70;;
37955;SDS011;23776;51.592;7.180;2023-07-13T15:25:19;8.27;;;2.75;;
37955;SDS011;23776;51.592;7.180;2023-07-13T15:27:47;7.03;;;2.92;;
37955;SDS011;23776;51.592;7.180;2023-07-13T15:30:13;4.25;;;2.65;;
37955;SDS011;23776;51.592;7.180;2023-07-13T15:32:39;4.82;;;2.85;;
37955;SDS011;23776;51.592;7.180;2023-07-13T15:35:12;12.10;;;3.70;;
37955;SDS011;23776;51.592;7.180;2023-07-13T15:37:51;6.60;;;3.20;;
37955;SDS011;23776;51.592;7.180;2023-07-13T15:40:17;8.07;;;4.78;;
37955;SDS011;23776;51.592;7.180;2023-07-13T15:42:44;5.57;;;3.35;;